createdAt,value
2017-07-09T00:01:38.432Z,19.90
2017-07-09T00:04:04.836Z,19.90
2017-07-09T00:06:31.976Z,19.80
2017-07-09T00:08:59.460Z,19.80
2017-07-09T00:11:25.878Z,19.70
2017-07-09T00:13:53.210Z,19.60
2017-07-09T00:16:20.344Z,19.60
2017-07-09T00:18:46.762Z,19.60
2017-07-09T00:21:13.152Z,19.70
2017-07-09T00:23:39.578Z,19.80
2017-07-09T00:26:06.751Z,19.40
2017-07-09T00:28:33.150Z,19.40
2017-07-09T00:31:00.286Z,19.30
2017-07-09T00:33:26.695Z,19.20
2017-07-09T00:35:53.071Z,19.30
2017-07-09T00:38:20.224Z,19.20
2017-07-09T00:40:46.643Z,19.20
2017-07-09T00:43:13.783Z,19.20
2017-07-09T00:45:40.183Z,19.20
2017-07-09T00:48:06.564Z,19.20
2017-07-09T00:50:33.706Z,19.30
2017-07-09T00:53:00.859Z,19.30
2017-07-09T00:55:27.245Z,19.30
2017-07-09T00:57:53.629Z,19.20
2017-07-09T01:00:20.776Z,19.10
2017-07-09T01:02:47.997Z,19.30
2017-07-09T01:05:14.438Z,19.20
2017-07-09T01:07:40.862Z,19.20
2017-07-09T01:10:07.255Z,19.20
2017-07-09T01:12:33.683Z,19.20
2017-07-09T01:15:00.099Z,19.20
2017-07-09T01:17:27.241Z,19.30
2017-07-09T01:19:53.642Z,19.30
2017-07-09T01:22:20.047Z,19.30
2017-07-09T01:24:46.442Z,19.30
2017-07-09T01:27:13.587Z,19.20
2017-07-09T01:29:40.758Z,19.20
2017-07-09T01:32:07.169Z,19.20
2017-07-09T01:34:34.417Z,19.20
2017-07-09T01:37:00.840Z,19.20
2017-07-09T01:39:27.268Z,19.30
2017-07-09T01:41:53.700Z,19.20
2017-07-09T01:44:20.164Z,19.20
2017-07-09T01:46:46.645Z,19.20
2017-07-09T01:49:13.076Z,19.20
2017-07-09T01:51:39.492Z,19.30
2017-07-09T01:54:05.965Z,19.40
2017-07-09T01:56:32.406Z,19.40
2017-07-09T01:58:58.826Z,19.40
2017-07-09T02:01:25.248Z,19.50
2017-07-09T02:03:51.638Z,19.60
2017-07-09T02:06:18.036Z,19.50
2017-07-09T02:08:44.434Z,19.50
2017-07-09T02:11:10.930Z,19.50
2017-07-09T02:13:38.094Z,19.50
2017-07-09T02:16:04.526Z,19.50
2017-07-09T02:18:30.939Z,19.50
2017-07-09T02:20:58.098Z,19.60
2017-07-09T02:23:24.542Z,19.60
2017-07-09T02:25:50.939Z,19.70
2017-07-09T02:28:17.348Z,19.50
2017-07-09T02:30:43.747Z,19.50
2017-07-09T02:33:10.141Z,19.40
2017-07-09T02:35:37.323Z,19.30
2017-07-09T02:38:03.730Z,19.30
2017-07-09T02:40:30.890Z,19.30
2017-07-09T02:42:58.049Z,19.30
2017-07-09T02:45:24.477Z,19.30
2017-07-09T02:47:50.871Z,19.30
2017-07-09T02:50:17.286Z,19.30
2017-07-09T02:52:43.692Z,19.20
2017-07-09T02:55:10.093Z,19.30
2017-07-09T02:57:37.272Z,19.30
2017-07-09T03:00:03.708Z,19.30
2017-07-09T03:02:30.156Z,19.30
2017-07-09T03:04:56.588Z,19.30
2017-07-09T03:07:23.010Z,19.30
2017-07-09T03:09:49.429Z,19.20
2017-07-09T03:12:15.829Z,19.20
2017-07-09T03:14:42.994Z,19.20
2017-07-09T03:17:10.173Z,19.20
2017-07-09T03:19:36.643Z,19.20
2017-07-09T03:22:03.056Z,19.20
2017-07-09T03:24:29.488Z,19.30
2017-07-09T03:26:55.974Z,19.30
2017-07-09T03:29:22.387Z,19.30
2017-07-09T03:31:48.801Z,19.30
2017-07-09T03:34:15.185Z,19.40
2017-07-09T03:36:42.329Z,19.20
2017-07-09T03:39:09.503Z,19.20
2017-07-09T03:41:35.896Z,19.20
2017-07-09T03:44:02.285Z,19.30
2017-07-09T03:46:28.687Z,19.30
2017-07-09T03:48:55.828Z,19.40
2017-07-09T03:51:22.983Z,19.40
2017-07-09T03:53:49.431Z,19.40
2017-07-09T03:56:15.820Z,19.60
2017-07-09T03:58:42.663Z,19.60
2017-07-09T04:01:09.044Z,19.50
2017-07-09T04:03:35.469Z,19.60
2017-07-09T04:06:01.872Z,19.60
2017-07-09T04:08:28.280Z,19.70
2017-07-09T04:10:54.677Z,19.70
2017-07-09T04:13:21.060Z,19.70
2017-07-09T04:15:47.448Z,19.60
2017-07-09T04:18:13.840Z,19.60
2017-07-09T04:20:41.061Z,19.70
2017-07-09T04:23:07.478Z,19.70
2017-07-09T04:25:33.881Z,19.70
2017-07-09T04:28:00.344Z,19.80
2017-07-09T04:30:26.759Z,19.80
2017-07-09T04:32:53.161Z,19.70
2017-07-09T04:35:20.333Z,19.70
2017-07-09T04:37:46.794Z,19.70
2017-07-09T04:40:13.211Z,19.60
2017-07-09T04:42:39.629Z,19.80
2017-07-09T04:45:06.053Z,19.90
2017-07-09T04:47:32.538Z,19.80
2017-07-09T04:49:58.930Z,19.80
2017-07-09T04:52:25.364Z,19.80
2017-07-09T04:54:51.764Z,19.90
2017-07-09T04:57:18.161Z,19.80
2017-07-09T04:59:44.561Z,19.80
2017-07-09T05:02:10.967Z,19.80
2017-07-09T05:04:38.126Z,20.10
2017-07-09T05:07:04.545Z,20.10
2017-07-09T05:09:30.961Z,20.20
2017-07-09T05:11:57.373Z,20.20
2017-07-09T05:14:23.789Z,20.30
2017-07-09T05:16:50.570Z,20.30
2017-07-09T05:19:16.980Z,20.30
2017-07-09T05:21:43.388Z,20.30
2017-07-09T05:24:09.813Z,20.40
2017-07-09T05:26:36.291Z,20.40
2017-07-09T05:29:02.698Z,20.50
2017-07-09T05:31:29.112Z,20.40
2017-07-09T05:33:55.533Z,20.50
2017-07-09T05:36:22.685Z,20.80
2017-07-09T05:38:49.865Z,20.90
2017-07-09T05:41:16.289Z,20.90
2017-07-09T05:43:42.676Z,21.00
2017-07-09T05:46:09.854Z,21.40
2017-07-09T05:48:36.263Z,21.40
2017-07-09T05:51:02.689Z,21.60
2017-07-09T05:53:29.117Z,21.80
2017-07-09T05:55:55.528Z,22.00
2017-07-09T05:58:21.920Z,22.10
2017-07-09T06:00:49.116Z,22.30
2017-07-09T06:03:15.546Z,22.30
2017-07-09T06:05:41.957Z,22.60
2017-07-09T06:08:08.363Z,22.80
2017-07-09T06:10:35.525Z,23.70
2017-07-09T06:13:01.967Z,23.70
2017-07-09T06:15:28.374Z,24.30
2017-07-09T06:17:55.509Z,25.00
2017-07-09T06:20:21.919Z,25.00
2017-07-09T06:22:48.402Z,25.40
2017-07-09T06:25:14.780Z,25.70
2017-07-09T06:27:41.210Z,26.10
2017-07-09T06:30:07.619Z,26.50
2017-07-09T06:32:34.026Z,26.70
2017-07-09T06:35:00.531Z,27.10
2017-07-09T06:37:27.782Z,27.50
2017-07-09T06:39:54.988Z,27.30
2017-07-09T06:42:21.895Z,27.30
2017-07-09T06:44:48.432Z,27.30
2017-07-09T06:47:15.579Z,27.30
2017-07-09T06:49:42.759Z,27.40
2017-07-09T06:52:09.172Z,27.40
2017-07-09T06:54:36.316Z,27.20
2017-07-09T06:57:03.459Z,27.20
2017-07-09T06:59:29.871Z,27.20
2017-07-09T07:01:56.299Z,27.20
2017-07-09T07:04:22.706Z,27.20
2017-07-09T07:06:49.128Z,27.20
2017-07-09T07:09:15.511Z,27.30
2017-07-09T07:11:41.935Z,27.60
2017-07-09T07:14:08.350Z,27.80
2017-07-09T07:16:34.760Z,27.90
2017-07-09T07:19:01.183Z,27.90
2017-07-09T07:21:27.585Z,27.90
2017-07-09T07:23:54.767Z,27.90
2017-07-09T07:26:21.169Z,27.80
2017-07-09T07:28:47.576Z,27.70
2017-07-09T07:31:13.976Z,27.50
2017-07-09T07:33:40.661Z,27.70
2017-07-09T07:36:07.084Z,27.60
2017-07-09T07:38:33.475Z,27.70
2017-07-09T07:40:59.876Z,27.70
2017-07-09T07:43:27.055Z,27.80
2017-07-09T07:45:53.434Z,27.70
2017-07-09T07:48:19.818Z,28.00
2017-07-09T07:50:46.234Z,28.00
2017-07-09T07:53:12.655Z,27.70
2017-07-09T07:55:39.821Z,27.90
2017-07-09T07:58:07.868Z,27.90
2017-07-09T08:00:49.197Z,27.90
2017-07-09T08:03:15.603Z,27.80
2017-07-09T08:05:42.741Z,27.80
2017-07-09T08:08:09.905Z,28.00
2017-07-09T08:10:36.313Z,28.00
2017-07-09T08:13:03.474Z,28.30
2017-07-09T08:15:29.849Z,28.20
2017-07-09T08:17:56.229Z,28.40
2017-07-09T08:20:22.672Z,28.70
2017-07-09T08:22:49.817Z,28.90
2017-07-09T08:25:16.966Z,28.80
2017-07-09T08:27:44.116Z,28.70
2017-07-09T08:30:11.260Z,28.80
2017-07-09T08:32:37.653Z,28.80
2017-07-09T08:35:04.045Z,28.90
2017-07-09T08:37:30.480Z,29.20
2017-07-09T08:39:56.898Z,29.10
2017-07-09T08:42:24.101Z,29.20
2017-07-09T08:44:50.492Z,29.20
2017-07-09T08:47:17.994Z,29.30
2017-07-09T08:49:44.446Z,29.30
2017-07-09T08:52:24.095Z,29.40
2017-07-09T08:55:03.635Z,29.20
2017-07-09T08:57:30.056Z,29.20
2017-07-09T08:59:56.462Z,29.40
2017-07-09T09:02:22.850Z,29.50
2017-07-09T09:04:49.250Z,29.70
2017-07-09T09:07:15.671Z,29.90
2017-07-09T09:09:42.082Z,29.80
2017-07-09T09:12:08.522Z,29.80
2017-07-09T09:14:34.910Z,29.80
2017-07-09T09:17:01.363Z,29.90
2017-07-09T09:19:28.511Z,29.90
2017-07-09T09:21:55.670Z,30.00
2017-07-09T09:24:22.094Z,30.00
2017-07-09T09:26:49.282Z,29.90
2017-07-09T09:29:15.710Z,29.90
2017-07-09T09:31:42.132Z,29.70
2017-07-09T09:34:08.522Z,29.60
2017-07-09T09:36:34.930Z,29.50
2017-07-09T09:39:01.597Z,29.40
2017-07-09T09:41:28.019Z,29.20
2017-07-09T09:43:54.444Z,29.20
2017-07-09T09:46:20.845Z,29.10
2017-07-09T09:48:47.282Z,29.30
2017-07-09T09:51:13.702Z,29.10
2017-07-09T09:53:40.158Z,28.80
2017-07-09T09:56:06.609Z,28.80
2017-07-09T09:58:33.266Z,28.90
2017-07-09T10:00:59.682Z,29.00
2017-07-09T10:03:26.150Z,28.90
2017-07-09T10:05:53.306Z,28.60
2017-07-09T10:08:20.456Z,28.50
2017-07-09T10:10:47.625Z,28.70
2017-07-09T10:13:14.168Z,28.60
2017-07-09T10:15:40.598Z,28.70
2017-07-09T10:18:07.167Z,28.70
2017-07-09T10:20:33.571Z,28.60
2017-07-09T10:22:59.997Z,28.60
2017-07-09T10:25:26.378Z,28.60
2017-07-09T10:27:52.801Z,28.30
2017-07-09T10:30:19.218Z,28.20
2017-07-09T10:32:45.640Z,28.30
2017-07-09T10:35:12.052Z,28.20
2017-07-09T10:37:38.438Z,28.00
2017-07-09T10:40:04.850Z,28.10
2017-07-09T10:42:31.265Z,28.20
2017-07-09T10:44:57.707Z,28.10
2017-07-09T10:47:24.139Z,27.90
2017-07-09T10:49:50.558Z,27.90
2017-07-09T10:52:16.999Z,27.70
2017-07-09T10:54:43.455Z,27.50
2017-07-09T10:57:09.864Z,27.60
2017-07-09T10:59:36.295Z,27.80
2017-07-09T11:02:02.766Z,27.60
2017-07-09T11:04:29.221Z,27.40
2017-07-09T11:06:55.629Z,27.40
2017-07-09T11:09:22.061Z,27.20
2017-07-09T11:11:48.464Z,27.00
2017-07-09T11:14:14.868Z,26.80
2017-07-09T11:16:41.993Z,26.60
2017-07-09T11:19:08.421Z,26.60
2017-07-09T11:21:34.880Z,26.50
2017-07-09T11:24:02.073Z,26.20
2017-07-09T11:26:28.660Z,25.90
2017-07-09T11:28:55.062Z,25.90
2017-07-09T11:31:21.472Z,25.60
2017-07-09T11:33:47.876Z,25.60
2017-07-09T11:36:15.052Z,25.60
2017-07-09T11:38:41.450Z,25.60
2017-07-09T11:41:08.616Z,25.70
2017-07-09T11:43:35.782Z,25.60
2017-07-09T11:46:02.343Z,25.60
2017-07-09T11:48:28.752Z,25.70
2017-07-09T11:50:55.188Z,25.90
2017-07-09T11:53:21.590Z,26.00
2017-07-09T11:55:48.780Z,26.30
2017-07-09T11:58:15.191Z,26.30
2017-07-09T12:00:41.633Z,26.50
2017-07-09T12:03:08.038Z,26.60
2017-07-09T12:05:35.223Z,27.10
2017-07-09T12:08:01.687Z,27.10
2017-07-09T12:10:29.034Z,27.20
2017-07-09T12:12:56.340Z,27.30
2017-07-09T12:15:23.502Z,27.70
2017-07-09T12:17:49.905Z,27.60
2017-07-09T12:20:16.369Z,27.80
2017-07-09T12:22:42.820Z,27.80
2017-07-09T12:25:09.231Z,28.10
2017-07-09T12:27:35.630Z,28.30
2017-07-09T12:30:02.069Z,28.30
2017-07-09T12:32:28.484Z,28.10
2017-07-09T12:34:54.906Z,27.70
2017-07-09T12:37:21.310Z,27.60
2017-07-09T12:39:47.722Z,27.90
2017-07-09T12:42:14.869Z,28.30
2017-07-09T12:44:42.003Z,28.20
2017-07-09T12:47:09.024Z,28.20
2017-07-09T12:49:35.903Z,28.00
2017-07-09T12:52:02.337Z,28.00
2017-07-09T12:54:29.524Z,27.70
2017-07-09T12:56:55.989Z,27.70
2017-07-09T12:59:22.430Z,27.70
2017-07-09T13:01:48.794Z,27.60
2017-07-09T13:04:15.953Z,27.90
2017-07-09T13:06:42.377Z,27.90
2017-07-09T13:09:09.557Z,28.20
2017-07-09T13:11:36.031Z,28.20
2017-07-09T13:14:02.468Z,28.30
2017-07-09T13:16:28.906Z,28.20
2017-07-09T13:18:55.291Z,28.50
2017-07-09T13:21:21.711Z,28.70
2017-07-09T13:23:48.155Z,28.70
2017-07-09T13:26:14.572Z,28.60
2017-07-09T13:28:41.738Z,29.00
2017-07-09T13:31:08.159Z,29.00
2017-07-09T13:33:34.548Z,29.20
2017-07-09T13:36:00.973Z,29.40
2017-07-09T13:38:27.399Z,29.30
2017-07-09T13:40:53.801Z,29.50
2017-07-09T13:43:20.206Z,29.70
2017-07-09T13:45:47.349Z,30.10
2017-07-09T13:48:13.768Z,30.10
2017-07-09T13:50:40.172Z,30.10
2017-07-09T13:53:06.602Z,30.20
2017-07-09T13:55:33.022Z,30.10
2017-07-09T13:57:59.439Z,30.30
2017-07-09T14:00:25.823Z,30.40
2017-07-09T14:02:52.264Z,30.50
2017-07-09T14:05:19.427Z,30.80
2017-07-09T14:07:46.137Z,30.70
2017-07-09T14:10:12.571Z,30.70
2017-07-09T14:12:38.953Z,30.60
2017-07-09T14:15:05.328Z,30.70
2017-07-09T14:17:31.737Z,30.60
2017-07-09T14:19:58.169Z,30.40
2017-07-09T14:22:24.577Z,30.40
2017-07-09T14:24:51.725Z,30.30
2017-07-09T14:27:18.861Z,30.20
2017-07-09T14:29:45.279Z,30.20
2017-07-09T14:32:11.683Z,30.00
2017-07-09T14:34:38.100Z,30.10
2017-07-09T14:37:04.504Z,30.20
2017-07-09T14:39:38.541Z,30.60
2017-07-09T14:42:04.947Z,30.60
2017-07-09T14:44:31.349Z,30.70
2017-07-09T14:46:57.737Z,30.70
2017-07-09T14:49:24.157Z,30.50
2017-07-09T14:51:50.532Z,30.50
2017-07-09T14:54:16.996Z,30.50
2017-07-09T14:56:43.395Z,30.60
2017-07-09T14:59:09.810Z,30.50
2017-07-09T15:01:36.239Z,30.50
2017-07-09T15:04:02.673Z,30.40
2017-07-09T15:06:29.074Z,30.50
2017-07-09T15:08:56.246Z,30.70
2017-07-09T15:11:22.683Z,30.70
2017-07-09T15:13:49.065Z,30.60
2017-07-09T15:16:15.480Z,30.50
2017-07-09T15:18:42.000Z,30.40
2017-07-09T15:21:08.436Z,30.30
2017-07-09T15:23:34.827Z,30.20
2017-07-09T15:26:01.951Z,30.00
2017-07-09T15:28:28.363Z,30.00
2017-07-09T15:30:54.847Z,29.90
2017-07-09T15:33:21.989Z,29.90
2017-07-09T15:35:48.365Z,29.90
2017-07-09T15:38:14.794Z,29.90
2017-07-09T15:40:41.214Z,29.80
2017-07-09T15:43:07.596Z,30.00
2017-07-09T15:45:34.004Z,30.10
2017-07-09T15:48:00.392Z,30.00
2017-07-09T15:50:27.540Z,29.90
2017-07-09T15:52:54.675Z,29.90
2017-07-09T15:55:21.048Z,29.80
2017-07-09T15:57:47.467Z,29.80
2017-07-09T16:00:13.891Z,29.80
2017-07-09T16:02:41.037Z,29.50
2017-07-09T16:05:08.178Z,29.40
2017-07-09T16:07:34.577Z,29.40
2017-07-09T16:10:01.021Z,29.40
2017-07-09T16:12:27.460Z,29.40
2017-07-09T16:14:53.869Z,29.50
2017-07-09T16:17:20.278Z,29.40
2017-07-09T16:19:46.689Z,29.50
2017-07-09T16:22:13.097Z,29.40
2017-07-09T16:24:39.513Z,29.30
2017-07-09T16:27:05.954Z,29.10
2017-07-09T16:29:32.375Z,29.10
2017-07-09T16:31:58.779Z,29.00
2017-07-09T16:34:25.192Z,29.00
2017-07-09T16:36:52.312Z,29.10
2017-07-09T16:39:18.728Z,29.00
2017-07-09T16:41:45.142Z,29.00
2017-07-09T16:44:11.560Z,28.90
2017-07-09T16:46:37.963Z,28.90
2017-07-09T16:49:05.110Z,29.00
2017-07-09T16:51:32.271Z,28.90
2017-07-09T16:53:59.411Z,28.80
2017-07-09T16:56:26.556Z,28.60
2017-07-09T16:58:53.745Z,28.70
2017-07-09T17:01:20.228Z,28.60
2017-07-09T17:03:47.379Z,28.70
2017-07-09T17:06:19.561Z,28.70
2017-07-09T17:08:46.733Z,28.70
2017-07-09T17:11:13.119Z,28.70
2017-07-09T17:13:39.534Z,28.70
2017-07-09T17:16:06.045Z,28.70
2017-07-09T17:18:32.423Z,28.80
2017-07-09T17:20:58.848Z,28.80
2017-07-09T17:23:25.241Z,28.70
2017-07-09T17:25:51.656Z,28.70
2017-07-09T17:28:18.050Z,28.60
2017-07-09T17:30:44.509Z,28.50
2017-07-09T17:33:10.914Z,28.50
2017-07-09T17:35:37.309Z,28.40
2017-07-09T17:38:03.741Z,28.30
2017-07-09T17:40:30.149Z,28.30
2017-07-09T17:42:57.307Z,28.40
2017-07-09T17:45:23.715Z,28.40
2017-07-09T17:47:50.873Z,28.30
2017-07-09T17:50:18.071Z,28.20
2017-07-09T17:52:44.492Z,28.20
2017-07-09T17:55:10.956Z,28.00
2017-07-09T17:57:37.387Z,28.10
2017-07-09T18:00:03.813Z,28.00
2017-07-09T18:02:30.196Z,28.00
2017-07-09T18:04:57.379Z,27.90
2017-07-09T18:07:23.793Z,27.80
2017-07-09T18:09:50.237Z,28.00
2017-07-09T18:12:16.638Z,28.00
2017-07-09T18:14:43.057Z,28.00
2017-07-09T18:17:09.468Z,28.00
2017-07-09T18:19:35.900Z,27.90
2017-07-09T18:22:02.306Z,27.80
2017-07-09T18:24:28.739Z,27.80
2017-07-09T18:26:55.165Z,27.70
2017-07-09T18:29:21.600Z,27.60
2017-07-09T18:31:47.976Z,27.50
2017-07-09T18:34:14.370Z,27.30
2017-07-09T18:36:40.803Z,27.30
2017-07-09T18:39:07.244Z,27.30
2017-07-09T18:41:33.677Z,27.20
2017-07-09T18:44:00.077Z,27.10
2017-07-09T18:46:26.789Z,26.90
2017-07-09T18:48:53.216Z,26.70
2017-07-09T18:51:19.647Z,26.60
2017-07-09T18:53:46.045Z,26.50
2017-07-09T18:56:12.467Z,26.40
2017-07-09T18:58:38.885Z,26.40
2017-07-09T19:01:06.029Z,26.10
2017-07-09T19:03:33.210Z,26.10
2017-07-09T19:05:59.614Z,26.10
2017-07-09T19:08:26.581Z,26.00
2017-07-09T19:10:52.971Z,26.00
2017-07-09T19:13:19.449Z,25.90
2017-07-09T19:15:45.885Z,25.80
2017-07-09T19:18:12.302Z,25.70
2017-07-09T19:20:39.474Z,25.60
2017-07-09T19:23:05.880Z,25.50
2017-07-09T19:25:33.017Z,25.50
2017-07-09T19:27:59.434Z,25.50
2017-07-09T19:30:25.876Z,25.50
2017-07-09T19:32:52.275Z,25.40
2017-07-09T19:35:18.700Z,25.40
2017-07-09T19:37:45.141Z,25.40
2017-07-09T19:40:11.548Z,25.20
2017-07-09T19:42:37.945Z,25.20
2017-07-09T19:45:04.358Z,25.10
2017-07-09T19:47:31.019Z,25.20
2017-07-09T19:49:58.183Z,25.20
2017-07-09T19:52:25.380Z,25.00
2017-07-09T19:54:51.761Z,25.00
2017-07-09T19:57:18.901Z,24.80
2017-07-09T19:59:45.323Z,24.80
2017-07-09T20:02:12.550Z,24.70
2017-07-09T20:04:38.957Z,24.70
2017-07-09T20:07:05.348Z,24.60
2017-07-09T20:09:32.919Z,24.40
2017-07-09T20:11:59.316Z,24.30
2017-07-09T20:14:25.717Z,24.30
2017-07-09T20:16:52.170Z,24.20
2017-07-09T20:19:18.667Z,24.10
2017-07-09T20:21:45.144Z,24.10
2017-07-09T20:24:11.614Z,24.00
2017-07-09T20:26:38.059Z,24.10
2017-07-09T20:29:05.250Z,24.20
2017-07-09T20:31:31.669Z,24.10
2017-07-09T20:33:58.141Z,24.10
2017-07-09T20:36:24.538Z,24.20
2017-07-09T20:38:50.954Z,24.20
2017-07-09T20:41:17.364Z,24.20
2017-07-09T20:43:44.619Z,23.90
2017-07-09T20:46:11.063Z,23.90
2017-07-09T20:48:37.488Z,23.80
2017-07-09T20:51:04.623Z,23.80
2017-07-09T20:53:31.062Z,23.80
2017-07-09T20:55:58.224Z,23.80
2017-07-09T20:58:25.396Z,23.80
2017-07-09T21:00:51.884Z,23.70
2017-07-09T21:03:18.740Z,23.70
2017-07-09T21:05:45.876Z,23.80
2017-07-09T21:08:12.288Z,23.80
2017-07-09T21:10:38.710Z,23.80
2017-07-09T21:13:05.115Z,23.70
2017-07-09T21:15:31.536Z,23.60
2017-07-09T21:17:58.704Z,23.50
2017-07-09T21:20:25.140Z,23.50
2017-07-09T21:22:51.572Z,23.50
2017-07-09T21:25:17.982Z,23.30
2017-07-09T21:27:45.516Z,23.20
2017-07-09T21:30:11.908Z,23.20
2017-07-09T21:32:38.325Z,23.20
2017-07-09T21:35:04.742Z,23.00
2017-07-09T21:37:31.891Z,23.00
2017-07-09T21:39:59.033Z,23.00
2017-07-09T21:42:26.161Z,23.00
2017-07-09T21:44:52.590Z,23.00
2017-07-09T21:47:18.991Z,23.10
2017-07-09T21:49:45.394Z,23.10
2017-07-09T21:52:11.824Z,23.10
2017-07-09T21:54:38.996Z,23.30
2017-07-09T21:57:05.438Z,23.20
2017-07-09T21:59:31.871Z,23.40
2017-07-09T22:01:58.371Z,23.40
2017-07-09T22:04:25.520Z,23.40
2017-07-09T22:06:52.647Z,23.50
2017-07-09T22:09:19.159Z,23.40
2017-07-09T22:11:45.606Z,23.50
2017-07-09T22:14:12.002Z,23.50
2017-07-09T22:16:38.442Z,23.50
2017-07-09T22:19:04.871Z,23.40
2017-07-09T22:21:31.287Z,23.30
2017-07-09T22:23:57.716Z,23.30
2017-07-09T22:26:24.884Z,23.40
2017-07-09T22:28:51.296Z,23.40
2017-07-09T22:31:18.425Z,23.40
2017-07-09T22:33:45.595Z,23.30
2017-07-09T22:36:12.012Z,23.20
2017-07-09T22:38:39.457Z,23.10
2017-07-09T22:41:05.847Z,23.10
2017-07-09T22:43:32.243Z,23.10
2017-07-09T22:45:59.401Z,23.30
2017-07-09T22:48:25.848Z,23.30
2017-07-09T22:50:52.290Z,23.30
2017-07-09T22:53:18.729Z,23.40
2017-07-09T22:55:45.101Z,23.40
2017-07-09T22:58:11.495Z,23.20
2017-07-09T23:00:37.892Z,23.20
2017-07-09T23:03:05.066Z,23.20
2017-07-09T23:05:31.494Z,23.20
2017-07-09T23:07:57.926Z,23.20
2017-07-09T23:10:24.331Z,23.30
2017-07-09T23:12:51.494Z,23.30
2017-07-09T23:15:17.906Z,23.30
2017-07-09T23:17:44.305Z,23.30
2017-07-09T23:20:10.725Z,23.30
2017-07-09T23:22:37.149Z,23.20
2017-07-09T23:25:03.579Z,23.30
2017-07-09T23:27:29.988Z,23.20
2017-07-09T23:29:57.254Z,23.30
2017-07-09T23:32:23.666Z,23.20
2017-07-09T23:34:50.800Z,23.10
2017-07-09T23:37:17.213Z,23.10
2017-07-09T23:39:43.613Z,23.20
2017-07-09T23:42:09.995Z,23.10
2017-07-09T23:44:36.393Z,23.10
2017-07-09T23:47:02.803Z,23.10
2017-07-09T23:49:29.199Z,23.10
2017-07-09T23:51:55.659Z,23.10
2017-07-09T23:54:22.072Z,23.20
2017-07-09T23:56:48.481Z,23.20
2017-07-09T23:59:14.908Z,23.30
